createdAt,value
2019-02-18T00:00:00.365Z,8.33
2019-02-18T00:01:00.290Z,8.32
2019-02-18T00:02:00.230Z,8.39
2019-02-18T00:03:00.176Z,8.37
2019-02-18T00:04:00.112Z,8.25
2019-02-18T00:05:00.058Z,8.28
2019-02-18T00:05:59.996Z,8.25
2019-02-18T00:06:59.931Z,8.28
2019-02-18T00:07:59.872Z,8.22
2019-02-18T00:08:59.807Z,8.33
2019-02-18T00:09:59.749Z,8.26
2019-02-18T00:10:59.687Z,8.30
2019-02-18T00:11:59.639Z,8.20
2019-02-18T00:12:59.569Z,8.26
2019-02-18T00:13:59.507Z,8.30
2019-02-18T00:14:59.474Z,8.22
2019-02-18T00:15:59.387Z,8.22
2019-02-18T00:16:59.402Z,8.22
2019-02-18T00:17:59.267Z,8.29
2019-02-18T00:18:59.208Z,8.26
2019-02-18T00:19:59.147Z,8.22
2019-02-18T00:20:59.086Z,8.26
2019-02-18T00:21:59.026Z,8.25
2019-02-18T00:22:58.966Z,8.28
2019-02-18T00:23:58.910Z,8.25
2019-02-18T00:24:58.846Z,8.20
2019-02-18T00:25:58.785Z,8.26
2019-02-18T00:26:58.726Z,8.17
2019-02-18T00:27:58.666Z,8.17
2019-02-18T00:28:58.608Z,8.29
2019-02-18T00:29:58.545Z,8.25
2019-02-18T00:30:58.490Z,8.18
2019-02-18T00:31:58.424Z,8.17
2019-02-18T00:32:58.364Z,8.25
2019-02-18T00:33:58.304Z,8.18
2019-02-18T00:34:58.258Z,8.18
2019-02-18T00:35:58.184Z,8.21
2019-02-18T00:36:58.122Z,8.20
2019-02-18T00:37:58.063Z,8.18
2019-02-18T00:38:58.003Z,8.25
2019-02-18T00:39:57.942Z,8.15
2019-02-18T00:40:57.895Z,8.20
2019-02-18T00:41:57.825Z,8.20
2019-02-18T00:42:57.763Z,8.18
2019-02-18T00:43:57.708Z,8.22
2019-02-18T00:44:57.643Z,8.25
2019-02-18T00:45:57.581Z,8.21
2019-02-18T00:46:57.521Z,8.15
2019-02-18T00:47:57.460Z,8.25
2019-02-18T00:48:57.399Z,8.20
2019-02-18T00:49:57.338Z,8.15
2019-02-18T00:50:57.279Z,8.20
2019-02-18T00:51:57.227Z,8.08
2019-02-18T00:52:57.159Z,8.11
2019-02-18T00:53:57.099Z,8.18
2019-02-18T00:54:57.039Z,8.14
2019-02-18T00:55:56.983Z,8.12
2019-02-18T00:56:56.917Z,8.18
2019-02-18T00:57:56.856Z,8.11
2019-02-18T00:58:56.799Z,8.10
2019-02-18T00:59:56.739Z,8.11
2019-02-18T01:00:56.675Z,8.11
2019-02-18T01:01:56.627Z,8.10
2019-02-18T01:02:56.556Z,8.04
2019-02-18T01:03:56.497Z,8.10
2019-02-18T01:04:56.435Z,8.10
2019-02-18T01:05:56.375Z,8.08
2019-02-18T01:06:56.317Z,8.08
2019-02-18T01:07:56.259Z,7.99
2019-02-18T01:08:56.193Z,8.00
2019-02-18T01:09:56.133Z,8.11
2019-02-18T01:10:56.074Z,8.10
2019-02-18T01:11:56.020Z,8.03
2019-02-18T01:12:55.954Z,8.08
2019-02-18T01:13:55.894Z,8.03
2019-02-18T01:14:55.835Z,8.03
2019-02-18T01:15:55.775Z,8.07
2019-02-18T01:16:55.711Z,8.00
2019-02-18T01:17:55.651Z,8.00
2019-02-18T01:18:55.594Z,8.00
2019-02-18T01:19:55.530Z,8.07
2019-02-18T01:20:55.471Z,7.99
2019-02-18T01:21:55.409Z,8.03
2019-02-18T01:22:55.351Z,8.00
2019-02-18T01:23:55.291Z,7.97
2019-02-18T01:24:55.227Z,7.96
2019-02-18T01:25:55.169Z,8.02
2019-02-18T01:26:55.110Z,7.94
2019-02-18T01:27:55.050Z,7.93
2019-02-18T01:28:54.993Z,7.97
2019-02-18T01:29:54.926Z,8.00
2019-02-18T01:30:54.868Z,7.93
2019-02-18T01:31:54.805Z,7.93
2019-02-18T01:32:54.745Z,7.93
2019-02-18T01:33:54.683Z,7.90
2019-02-18T01:34:54.623Z,7.94
2019-02-18T01:35:54.567Z,7.92
2019-02-18T01:36:54.502Z,7.93
2019-02-18T01:37:54.443Z,7.94
2019-02-18T01:38:54.382Z,7.96
2019-02-18T01:39:54.321Z,7.84
2019-02-18T01:40:54.269Z,7.93
2019-02-18T01:41:54.201Z,7.90
2019-02-18T01:42:54.140Z,7.90
2019-02-18T01:43:54.080Z,7.90
2019-02-18T01:44:54.021Z,7.84
2019-02-18T01:45:53.959Z,7.90
2019-02-18T01:46:53.898Z,7.89
2019-02-18T01:47:53.838Z,7.90
2019-02-18T01:48:53.778Z,7.85
2019-02-18T01:49:53.717Z,7.89
2019-02-18T01:50:53.657Z,7.89
2019-02-18T01:51:53.601Z,7.90
2019-02-18T01:52:53.535Z,7.84
2019-02-18T01:53:53.474Z,7.84
2019-02-18T01:54:53.415Z,7.84
2019-02-18T01:55:53.354Z,7.85
2019-02-18T01:56:53.292Z,7.84
2019-02-18T01:57:53.234Z,7.81
2019-02-18T01:58:53.172Z,7.77
2019-02-18T01:59:53.111Z,7.77
2019-02-18T02:00:53.051Z,7.75
2019-02-18T02:01:52.990Z,7.84
2019-02-18T02:02:52.931Z,7.75
2019-02-18T02:03:52.872Z,7.84
2019-02-18T02:04:52.808Z,7.79
2019-02-18T02:05:52.748Z,7.75
2019-02-18T02:06:52.689Z,7.84
2019-02-18T02:07:56.336Z,7.81
2019-02-18T02:08:52.569Z,7.78
2019-02-18T02:09:52.506Z,7.81
2019-02-18T02:10:52.452Z,7.75
2019-02-18T02:11:52.393Z,7.78
2019-02-18T02:12:52.325Z,7.82
2019-02-18T02:13:52.267Z,7.72
2019-02-18T02:14:52.206Z,7.72
2019-02-18T02:15:52.144Z,7.82
2019-02-18T02:16:52.083Z,7.74
2019-02-18T02:17:52.025Z,7.75
2019-02-18T02:18:51.964Z,7.71
2019-02-18T02:19:51.901Z,7.67
2019-02-18T02:20:51.846Z,7.81
2019-02-18T02:21:51.780Z,7.69
2019-02-18T02:22:51.718Z,7.72
2019-02-18T02:23:51.660Z,7.69
2019-02-18T02:24:51.599Z,7.75
2019-02-18T02:25:51.538Z,7.71
2019-02-18T02:26:51.477Z,7.63
2019-02-18T02:27:51.419Z,7.67
2019-02-18T02:28:51.357Z,7.77
2019-02-18T02:29:51.295Z,7.75
2019-02-18T02:30:51.235Z,7.78
2019-02-18T02:31:51.174Z,7.81
2019-02-18T02:32:51.176Z,7.72
2019-02-18T02:33:51.054Z,7.63
2019-02-18T02:34:50.991Z,7.77
2019-02-18T02:35:50.932Z,7.74
2019-02-18T02:36:50.870Z,7.75
2019-02-18T02:37:50.812Z,7.63
2019-02-18T02:38:50.750Z,7.67
2019-02-18T02:39:50.689Z,7.59
2019-02-18T02:40:50.628Z,7.60
2019-02-18T02:41:50.570Z,7.67
2019-02-18T02:42:50.506Z,7.66
2019-02-18T02:43:50.447Z,7.63
2019-02-18T02:44:50.384Z,7.62
2019-02-18T02:45:50.324Z,7.63
2019-02-18T02:46:50.265Z,7.60
2019-02-18T02:47:50.204Z,7.71
2019-02-18T02:48:50.141Z,7.69
2019-02-18T02:49:50.083Z,7.59
2019-02-18T02:50:50.023Z,7.71
2019-02-18T02:51:49.967Z,7.69
2019-02-18T02:52:49.899Z,7.60
2019-02-18T02:53:49.843Z,7.71
2019-02-18T02:54:49.778Z,7.62
2019-02-18T02:55:49.717Z,7.63
2019-02-18T02:56:49.660Z,7.60
2019-02-18T02:57:49.595Z,7.56
2019-02-18T02:58:49.536Z,7.56
2019-02-18T02:59:49.477Z,7.56
2019-02-18T03:00:49.414Z,7.62
2019-02-18T03:01:49.356Z,7.56
2019-02-18T03:02:49.292Z,7.60
2019-02-18T03:03:49.232Z,7.53
2019-02-18T03:04:49.177Z,7.55
2019-02-18T03:05:49.112Z,7.58
2019-02-18T03:06:49.051Z,7.58
2019-02-18T03:07:48.994Z,7.63
2019-02-18T03:08:48.927Z,7.56
2019-02-18T03:09:48.868Z,7.53
2019-02-18T03:10:48.807Z,7.60
2019-02-18T03:11:48.745Z,7.55
2019-02-18T03:12:48.684Z,7.55
2019-02-18T03:13:48.624Z,7.56
2019-02-18T03:14:48.563Z,7.59
2019-02-18T03:15:48.614Z,7.52
2019-02-18T03:16:48.447Z,7.52
2019-02-18T03:17:48.381Z,7.47
2019-02-18T03:18:48.325Z,7.56
2019-02-18T03:19:48.267Z,7.47
2019-02-18T03:20:48.199Z,7.53
2019-02-18T03:21:48.138Z,7.50
2019-02-18T03:22:48.077Z,7.45
2019-02-18T03:23:48.019Z,7.50
2019-02-18T03:24:47.957Z,7.44
2019-02-18T03:25:47.894Z,7.44
2019-02-18T03:26:47.839Z,7.47
2019-02-18T03:27:47.775Z,7.50
2019-02-18T03:28:47.711Z,7.41
2019-02-18T03:29:47.652Z,7.42
2019-02-18T03:30:47.599Z,7.44
2019-02-18T03:31:47.531Z,7.45
2019-02-18T03:32:47.470Z,7.44
2019-02-18T03:33:47.409Z,7.44
2019-02-18T03:34:47.354Z,7.45
2019-02-18T03:35:47.286Z,7.45
2019-02-18T03:36:47.225Z,7.44
2019-02-18T03:37:47.170Z,7.35
2019-02-18T03:38:47.108Z,7.42
2019-02-18T03:39:47.044Z,7.40
2019-02-18T03:40:46.981Z,7.38
2019-02-18T03:41:46.921Z,7.37
2019-02-18T03:42:46.860Z,7.42
2019-02-18T03:43:46.798Z,7.37
2019-02-18T03:44:46.739Z,7.42
2019-02-18T03:45:46.677Z,7.40
2019-02-18T03:46:46.617Z,7.44
2019-02-18T03:47:46.555Z,7.35
2019-02-18T03:48:46.494Z,7.45
2019-02-18T03:49:46.438Z,7.34
2019-02-18T03:50:46.374Z,7.29
2019-02-18T03:51:46.313Z,7.41
2019-02-18T03:52:46.250Z,7.34
2019-02-18T03:53:46.190Z,7.32
2019-02-18T03:54:46.128Z,7.34
2019-02-18T03:55:46.070Z,7.38
2019-02-18T03:56:46.008Z,7.40
2019-02-18T03:57:45.953Z,7.32
2019-02-18T03:58:45.887Z,7.29
2019-02-18T03:59:45.831Z,7.34
2019-02-18T04:00:45.763Z,7.32
2019-02-18T04:01:45.703Z,7.26
2019-02-18T04:02:45.646Z,7.31
2019-02-18T04:03:45.582Z,7.34
2019-02-18T04:04:45.520Z,7.26
2019-02-18T04:05:45.461Z,7.29
2019-02-18T04:06:45.399Z,7.32
2019-02-18T04:07:45.342Z,7.31
2019-02-18T04:08:45.278Z,7.34
2019-02-18T04:09:45.219Z,7.34
2019-02-18T04:10:45.157Z,7.22
2019-02-18T04:11:45.093Z,7.32
2019-02-18T04:12:45.036Z,7.34
2019-02-18T04:13:44.975Z,7.23
2019-02-18T04:14:44.911Z,7.23
2019-02-18T04:15:44.850Z,7.20
2019-02-18T04:16:44.794Z,7.23
2019-02-18T04:17:44.726Z,7.19
2019-02-18T04:18:44.666Z,7.22
2019-02-18T04:19:44.605Z,7.19
2019-02-18T04:20:44.544Z,7.20
2019-02-18T04:21:44.484Z,7.20
2019-02-18T04:22:44.426Z,7.20
2019-02-18T04:23:44.363Z,7.22
2019-02-18T04:24:44.320Z,7.22
2019-02-18T04:25:44.238Z,7.13
2019-02-18T04:26:44.178Z,7.26
2019-02-18T04:27:44.193Z,7.19
2019-02-18T04:28:44.057Z,7.22
2019-02-18T04:29:44.006Z,7.20
2019-02-18T04:30:43.937Z,7.22
2019-02-18T04:31:43.886Z,7.20
2019-02-18T04:32:43.815Z,7.19
2019-02-18T04:33:43.758Z,7.16
2019-02-18T04:34:43.690Z,7.19
2019-02-18T04:35:43.630Z,7.19
2019-02-18T04:36:43.567Z,7.20
2019-02-18T04:37:43.520Z,7.08
2019-02-18T04:38:53.631Z,7.17
2019-02-18T04:39:43.384Z,7.13
2019-02-18T04:40:43.330Z,7.05
2019-02-18T04:41:43.264Z,7.17
2019-02-18T04:42:43.204Z,7.09
2019-02-18T04:43:43.144Z,7.05
2019-02-18T04:44:43.080Z,7.12
2019-02-18T04:45:43.032Z,7.12
2019-02-18T04:46:42.957Z,7.09
2019-02-18T04:47:42.896Z,7.07
2019-02-18T04:48:42.835Z,7.09
2019-02-18T04:49:42.773Z,7.13
2019-02-18T04:50:42.720Z,7.07
2019-02-18T04:51:42.652Z,7.13
2019-02-18T04:52:42.591Z,7.05
2019-02-18T04:53:42.528Z,7.08
2019-02-18T04:54:42.472Z,7.04
2019-02-18T04:55:42.407Z,7.07
2019-02-18T04:56:42.345Z,7.12
2019-02-18T04:57:42.291Z,7.07
2019-02-18T04:58:42.223Z,7.07
2019-02-18T04:59:42.163Z,7.04
2019-02-18T05:00:42.104Z,7.01
2019-02-18T05:01:42.040Z,7.09
2019-02-18T05:02:41.978Z,6.97
2019-02-18T05:03:41.917Z,6.97
2019-02-18T05:04:41.856Z,6.98
2019-02-18T05:05:41.794Z,7.04
2019-02-18T05:06:41.734Z,6.94
2019-02-18T05:07:41.677Z,6.97
2019-02-18T05:08:41.610Z,6.95
2019-02-18T05:09:41.552Z,6.99
2019-02-18T05:10:41.495Z,6.89
2019-02-18T05:11:41.432Z,7.02
2019-02-18T05:12:41.390Z,6.97
2019-02-18T05:13:41.306Z,6.97
2019-02-18T05:14:41.247Z,6.95
2019-02-18T05:15:41.184Z,6.99
2019-02-18T05:16:41.122Z,6.97
2019-02-18T05:17:41.061Z,6.98
2019-02-18T05:18:41.000Z,6.97
2019-02-18T05:19:40.941Z,6.98
2019-02-18T05:20:40.877Z,6.94
2019-02-18T05:21:40.915Z,6.98
2019-02-18T05:22:40.756Z,6.98
2019-02-18T05:23:40.695Z,6.94
2019-02-18T05:24:40.632Z,6.95
2019-02-18T05:25:40.571Z,6.91
2019-02-18T05:26:40.510Z,6.91
2019-02-18T05:27:40.451Z,6.98
2019-02-18T05:28:40.436Z,6.98
2019-02-18T05:29:40.325Z,6.90
2019-02-18T05:30:40.265Z,6.91
2019-02-18T05:31:40.213Z,6.94
2019-02-18T05:32:40.142Z,6.91
2019-02-18T05:33:40.086Z,6.95
2019-02-18T05:34:40.043Z,6.84
2019-02-18T05:35:39.959Z,6.90
2019-02-18T05:36:39.899Z,6.90
2019-02-18T05:37:39.846Z,6.94
2019-02-18T05:38:39.776Z,6.91
2019-02-18T05:39:39.717Z,6.86
2019-02-18T05:40:39.658Z,6.83
2019-02-18T05:41:39.591Z,6.90
2019-02-18T05:42:39.530Z,6.83
2019-02-18T05:43:39.471Z,6.86
2019-02-18T05:44:39.409Z,6.84
2019-02-18T05:45:39.348Z,6.81
2019-02-18T05:46:39.287Z,6.83
2019-02-18T05:47:39.227Z,6.79
2019-02-18T05:48:39.182Z,6.83
2019-02-18T05:49:39.101Z,6.80
2019-02-18T05:50:39.040Z,6.79
2019-02-18T05:51:38.984Z,6.80
2019-02-18T05:52:38.919Z,6.79
2019-02-18T05:53:38.857Z,6.81
2019-02-18T05:54:38.795Z,6.76
2019-02-18T05:55:38.737Z,6.79
2019-02-18T05:56:38.671Z,6.77
2019-02-18T05:57:38.611Z,6.79
2019-02-18T05:58:38.551Z,6.73
2019-02-18T05:59:38.490Z,6.79
2019-02-18T06:00:38.426Z,6.77
2019-02-18T06:01:38.366Z,6.77
2019-02-18T06:02:38.304Z,6.80
2019-02-18T06:03:38.244Z,6.73
2019-02-18T06:04:38.198Z,6.80
2019-02-18T06:05:38.121Z,6.76
2019-02-18T06:06:38.060Z,6.77
2019-02-18T06:07:38.000Z,6.73
2019-02-18T06:08:37.936Z,6.76
2019-02-18T06:09:37.875Z,6.73
2019-02-18T06:10:37.815Z,6.69
2019-02-18T06:11:37.824Z,6.73
2019-02-18T06:12:37.689Z,6.69
2019-02-18T06:13:37.629Z,6.65
2019-02-18T06:14:37.577Z,6.76
2019-02-18T06:15:37.508Z,6.68
2019-02-18T06:16:37.450Z,6.72
2019-02-18T06:17:37.387Z,6.65
2019-02-18T06:18:37.323Z,6.69
2019-02-18T06:19:37.261Z,6.73
2019-02-18T06:20:37.203Z,6.71
2019-02-18T06:21:37.138Z,6.72
2019-02-18T06:22:38.688Z,6.66
2019-02-18T06:23:37.017Z,6.69
2019-02-18T06:24:36.953Z,6.72
2019-02-18T06:25:36.895Z,6.71
2019-02-18T06:26:36.833Z,6.69
2019-02-18T06:27:36.771Z,6.69
2019-02-18T06:28:36.708Z,6.69
2019-02-18T06:29:36.646Z,6.72
2019-02-18T06:30:36.591Z,6.69
2019-02-18T06:31:36.523Z,6.68
2019-02-18T06:32:36.462Z,6.73
2019-02-18T06:33:36.405Z,6.79
2019-02-18T06:34:36.340Z,6.71
2019-02-18T06:35:36.337Z,6.72
2019-02-18T06:36:36.218Z,6.66
2019-02-18T06:37:36.156Z,6.71
2019-02-18T06:38:36.104Z,6.65
2019-02-18T06:39:41.356Z,6.65
2019-02-18T06:40:35.971Z,6.69
2019-02-18T06:41:35.910Z,6.62
2019-02-18T06:42:35.900Z,6.61
2019-02-18T06:43:35.787Z,6.66
2019-02-18T06:44:35.726Z,6.63
2019-02-18T06:45:35.663Z,6.72
2019-02-18T06:46:35.609Z,6.65
2019-02-18T06:47:35.542Z,6.72
2019-02-18T06:48:35.480Z,6.61
2019-02-18T06:49:35.420Z,6.68
2019-02-18T06:50:35.356Z,6.66
2019-02-18T06:51:35.296Z,6.62
2019-02-18T06:52:35.238Z,6.62
2019-02-18T06:53:35.181Z,6.61
2019-02-18T06:54:35.112Z,6.61
2019-02-18T06:55:35.049Z,6.68
2019-02-18T06:56:34.988Z,6.62
2019-02-18T06:57:34.928Z,6.65
2019-02-18T06:58:34.869Z,6.61
2019-02-18T06:59:34.806Z,6.62
2019-02-18T07:00:34.744Z,6.56
2019-02-18T07:01:34.679Z,6.51
2019-02-18T07:02:34.620Z,6.61
2019-02-18T07:03:34.561Z,6.65
2019-02-18T07:04:34.495Z,6.53
2019-02-18T07:05:34.434Z,6.61
2019-02-18T07:06:34.379Z,6.61
2019-02-18T07:07:34.311Z,6.59
2019-02-18T07:08:34.253Z,6.62
2019-02-18T07:09:34.188Z,6.51
2019-02-18T07:10:34.128Z,6.51
2019-02-18T07:11:34.065Z,6.56
2019-02-18T07:12:34.005Z,6.51
2019-02-18T07:13:33.948Z,6.58
2019-02-18T07:14:33.880Z,6.53
2019-02-18T07:15:33.817Z,6.56
2019-02-18T07:16:33.757Z,6.50
2019-02-18T07:17:33.695Z,6.54
2019-02-18T07:18:33.634Z,6.59
2019-02-18T07:19:33.573Z,6.58
2019-02-18T07:20:33.518Z,6.53
2019-02-18T07:21:33.453Z,6.59
2019-02-18T07:22:33.389Z,6.51
2019-02-18T07:23:33.330Z,6.59
2019-02-18T07:24:33.264Z,6.50
2019-02-18T07:25:33.206Z,6.53
2019-02-18T07:26:33.148Z,6.56
2019-02-18T07:27:33.082Z,6.53
2019-02-18T07:28:33.021Z,6.54
2019-02-18T07:29:34.198Z,6.46
2019-02-18T07:30:32.895Z,6.51
2019-02-18T07:31:32.833Z,6.48
2019-02-18T07:32:32.774Z,6.54
2019-02-18T07:33:32.715Z,6.53
2019-02-18T07:34:32.650Z,6.56
2019-02-18T07:35:32.592Z,6.58
2019-02-18T07:36:34.891Z,6.50
2019-02-18T07:37:32.464Z,6.59
2019-02-18T07:38:32.403Z,6.53
2019-02-18T07:39:32.346Z,6.59
2019-02-18T07:40:32.278Z,6.56
2019-02-18T07:41:32.219Z,6.51
2019-02-18T07:42:32.158Z,6.56
2019-02-18T07:43:32.097Z,6.56
2019-02-18T07:44:32.032Z,6.51
2019-02-18T07:45:31.972Z,6.56
2019-02-18T07:46:31.912Z,6.59
2019-02-18T07:47:31.848Z,6.53
2019-02-18T07:48:31.787Z,6.56
2019-02-18T07:49:31.725Z,6.58
2019-02-18T07:50:31.665Z,6.58
2019-02-18T07:51:31.602Z,6.51
2019-02-18T07:52:31.540Z,6.53
2019-02-18T07:53:31.478Z,6.48
2019-02-18T07:54:31.421Z,6.56
2019-02-18T07:55:31.357Z,6.58
2019-02-18T07:56:31.294Z,6.59
2019-02-18T07:57:31.234Z,6.59
2019-02-18T07:58:31.172Z,6.63
2019-02-18T07:59:31.108Z,6.59
2019-02-18T08:00:31.050Z,6.62
2019-02-18T08:01:30.985Z,6.63
2019-02-18T08:02:30.926Z,6.56
2019-02-18T08:03:30.865Z,6.59
2019-02-18T08:04:30.801Z,6.56
2019-02-18T08:05:30.738Z,6.51
2019-02-18T08:06:30.677Z,6.48
2019-02-18T08:07:30.616Z,6.59
2019-02-18T08:08:30.558Z,6.53
2019-02-18T08:09:30.496Z,6.47
2019-02-18T08:10:30.479Z,6.51
2019-02-18T08:11:30.369Z,6.56
2019-02-18T08:12:30.306Z,6.58
2019-02-18T08:13:30.246Z,6.53
2019-02-18T08:14:30.189Z,6.50
2019-02-18T08:15:30.127Z,6.54
2019-02-18T08:16:30.064Z,6.48
2019-02-18T08:17:30.006Z,6.59
2019-02-18T08:18:29.946Z,6.53
2019-02-18T08:19:29.882Z,6.51
2019-02-18T08:20:29.815Z,6.50
2019-02-18T08:21:29.761Z,6.68
2019-02-18T08:22:29.698Z,6.63
2019-02-18T08:23:29.634Z,6.62
2019-02-18T08:24:29.571Z,6.59
2019-02-18T08:25:29.511Z,6.62
2019-02-18T08:26:29.451Z,6.56
2019-02-18T08:27:29.399Z,6.65
2019-02-18T08:28:29.325Z,6.63
2019-02-18T08:29:29.265Z,6.59
2019-02-18T08:30:29.203Z,6.65
2019-02-18T08:31:29.141Z,6.65
2019-02-18T08:32:29.086Z,6.62
2019-02-18T08:33:29.019Z,6.71
2019-02-18T08:34:28.963Z,6.62
2019-02-18T08:35:28.899Z,6.61
2019-02-18T08:36:28.831Z,6.66
2019-02-18T08:37:30.339Z,6.72
2019-02-18T08:38:28.709Z,6.71
2019-02-18T08:39:28.647Z,6.56
2019-02-18T08:40:28.585Z,6.72
2019-02-18T08:41:28.527Z,6.65
2019-02-18T08:42:28.463Z,6.69
2019-02-18T08:43:28.407Z,6.66
2019-02-18T08:44:28.339Z,6.73
2019-02-18T08:45:28.272Z,6.76
2019-02-18T08:46:28.218Z,6.77
2019-02-18T08:47:28.149Z,6.71
2019-02-18T08:48:28.087Z,6.62
2019-02-18T08:49:28.029Z,6.71
2019-02-18T08:50:27.963Z,6.72
2019-02-18T08:51:27.902Z,6.72
2019-02-18T08:52:27.842Z,6.69
2019-02-18T08:53:27.780Z,6.71
2019-02-18T08:54:27.717Z,6.63
2019-02-18T08:55:27.657Z,6.62
2019-02-18T08:56:27.596Z,6.65
2019-02-18T08:57:27.533Z,6.63
2019-02-18T08:58:27.470Z,6.68
2019-02-18T08:59:27.409Z,6.66
2019-02-18T09:00:27.352Z,6.69
2019-02-18T09:01:27.286Z,6.73
2019-02-18T09:02:27.225Z,6.65
2019-02-18T09:03:27.164Z,6.76
2019-02-18T09:04:28.125Z,6.76
2019-02-18T09:05:27.039Z,6.68
2019-02-18T09:06:26.978Z,6.80
2019-02-18T09:07:26.934Z,6.69
2019-02-18T09:08:26.857Z,6.76
2019-02-18T09:09:26.793Z,6.73
2019-02-18T09:10:33.636Z,6.76
2019-02-18T09:11:26.670Z,6.73
2019-02-18T09:12:26.612Z,6.76
2019-02-18T09:13:26.546Z,6.80
2019-02-18T09:14:26.485Z,6.79
2019-02-18T09:15:26.424Z,6.81
2019-02-18T09:16:26.363Z,6.73
2019-02-18T09:17:26.299Z,6.76
2019-02-18T09:18:41.015Z,6.83
2019-02-18T09:19:26.177Z,6.77
2019-02-18T09:20:26.116Z,6.81
2019-02-18T09:21:26.053Z,6.79
2019-02-18T09:22:25.992Z,6.79
2019-02-18T09:23:25.933Z,6.79
2019-02-18T09:24:25.871Z,6.76
2019-02-18T09:25:25.810Z,6.79
2019-02-18T09:26:25.749Z,6.76
2019-02-18T09:27:25.687Z,6.81
2019-02-18T09:28:25.621Z,6.87
2019-02-18T09:29:25.566Z,6.83
2019-02-18T09:30:25.508Z,6.76
2019-02-18T09:31:25.444Z,6.87
2019-02-18T09:32:25.381Z,6.86
2019-02-18T09:33:25.314Z,6.84
2019-02-18T09:34:25.253Z,6.86
2019-02-18T09:35:25.191Z,6.84
2019-02-18T09:36:25.129Z,6.81
2019-02-18T09:37:25.069Z,6.86
2019-02-18T09:38:25.661Z,6.89
2019-02-18T09:39:31.118Z,6.86
2019-02-18T09:40:24.885Z,6.91
2019-02-18T09:41:24.825Z,6.90
2019-02-18T09:42:26.507Z,6.91
2019-02-18T09:43:24.699Z,6.90
2019-02-18T09:44:24.636Z,6.87
2019-02-18T09:45:24.577Z,6.90
2019-02-18T09:46:24.515Z,6.95
2019-02-18T09:47:24.454Z,6.99
2019-02-18T09:48:24.394Z,6.99
2019-02-18T09:49:24.331Z,6.94
2019-02-18T09:50:24.268Z,6.97
2019-02-18T09:51:24.209Z,6.98
2019-02-18T09:52:24.144Z,6.91
2019-02-18T09:53:24.082Z,6.95
2019-02-18T09:54:24.030Z,6.97
2019-02-18T09:55:23.961Z,6.99
2019-02-18T09:56:23.898Z,6.97
2019-02-18T09:57:23.845Z,6.95
2019-02-18T09:58:23.778Z,6.97
2019-02-18T09:59:23.714Z,6.91
2019-02-18T10:00:23.658Z,6.98
2019-02-18T10:01:23.593Z,6.94
2019-02-18T10:02:23.529Z,7.04
2019-02-18T10:03:31.703Z,7.07
2019-02-18T10:04:23.412Z,6.94
2019-02-18T10:05:23.344Z,7.04
2019-02-18T10:06:23.283Z,7.07
2019-02-18T10:07:23.222Z,7.09
2019-02-18T10:08:23.159Z,7.13
2019-02-18T10:09:23.099Z,7.09
2019-02-18T10:10:23.038Z,7.13
2019-02-18T10:11:22.976Z,7.08
2019-02-18T10:12:22.913Z,7.07
2019-02-18T10:13:22.852Z,7.07
2019-02-18T10:14:22.791Z,7.05
2019-02-18T10:15:22.729Z,7.07
2019-02-18T10:16:22.667Z,7.05
2019-02-18T10:17:22.606Z,7.05
2019-02-18T10:18:22.549Z,7.05
2019-02-18T10:19:22.484Z,7.04
2019-02-18T10:20:22.422Z,7.16
2019-02-18T10:21:22.363Z,7.16
2019-02-18T10:22:22.299Z,7.22
2019-02-18T10:23:22.238Z,7.22
2019-02-18T10:24:22.260Z,7.19
2019-02-18T10:25:22.115Z,7.15
2019-02-18T10:26:22.064Z,7.22
2019-02-18T10:27:21.993Z,7.20
2019-02-18T10:28:21.930Z,7.23
2019-02-18T10:29:21.868Z,7.22
2019-02-18T10:30:21.813Z,7.23
2019-02-18T10:31:21.748Z,7.20
2019-02-18T10:32:21.683Z,7.22
2019-02-18T10:33:21.630Z,7.20
2019-02-18T10:34:21.562Z,7.24
2019-02-18T10:35:21.500Z,7.22
2019-02-18T10:36:21.440Z,7.20
2019-02-18T10:37:21.376Z,7.23
2019-02-18T10:38:21.324Z,7.20
2019-02-18T10:39:21.256Z,7.23
2019-02-18T10:40:21.193Z,7.34
2019-02-18T10:41:21.131Z,7.20
2019-02-18T10:42:21.070Z,7.22
2019-02-18T10:43:30.155Z,7.35
2019-02-18T10:44:20.947Z,7.32
2019-02-18T10:45:20.888Z,7.26
2019-02-18T10:46:20.826Z,7.32
2019-02-18T10:47:20.762Z,7.40
2019-02-18T10:48:20.709Z,7.34
2019-02-18T10:49:21.580Z,7.38
2019-02-18T10:50:20.586Z,7.32
2019-02-18T10:51:20.523Z,7.37
2019-02-18T10:52:22.558Z,7.27
2019-02-18T10:53:20.394Z,7.38
2019-02-18T10:54:20.333Z,7.34
2019-02-18T10:55:20.271Z,7.34
2019-02-18T10:56:20.211Z,7.32
2019-02-18T10:57:20.148Z,7.32
2019-02-18T10:58:20.088Z,7.35
2019-02-18T10:59:20.027Z,7.41
2019-02-18T11:00:19.965Z,7.42
2019-02-18T11:01:19.903Z,7.40
2019-02-18T11:02:19.842Z,7.42
2019-02-18T11:03:19.801Z,7.41
2019-02-18T11:04:19.719Z,7.47
2019-02-18T11:05:19.657Z,7.44
2019-02-18T11:06:19.596Z,7.49
2019-02-18T11:07:19.536Z,7.44
2019-02-18T11:08:19.478Z,7.44
2019-02-18T11:09:19.418Z,7.47
2019-02-18T11:10:19.353Z,7.44
2019-02-18T11:11:19.292Z,7.47
2019-02-18T11:12:19.229Z,7.50
2019-02-18T11:13:19.169Z,7.52
2019-02-18T11:14:19.110Z,7.53
2019-02-18T11:15:19.045Z,7.59
2019-02-18T11:16:18.983Z,7.63
2019-02-18T11:17:18.922Z,7.56
2019-02-18T11:18:18.861Z,7.56
2019-02-18T11:19:18.800Z,7.55
2019-02-18T11:20:18.738Z,7.59
2019-02-18T11:21:18.678Z,7.56
2019-02-18T11:22:18.619Z,7.60
2019-02-18T11:23:18.556Z,7.55
2019-02-18T11:24:20.657Z,7.62
2019-02-18T11:25:18.432Z,7.62
2019-02-18T11:26:18.371Z,7.66
2019-02-18T11:27:18.309Z,7.62
2019-02-18T11:28:18.247Z,7.66
2019-02-18T11:29:18.187Z,7.59
2019-02-18T11:30:18.127Z,7.63
2019-02-18T11:31:18.067Z,7.63
2019-02-18T11:32:18.003Z,7.63
2019-02-18T11:33:17.942Z,7.66
2019-02-18T11:34:17.882Z,7.63
2019-02-18T11:35:17.825Z,7.72
2019-02-18T11:36:17.759Z,7.63
2019-02-18T11:37:17.699Z,7.72
2019-02-18T11:38:17.637Z,7.77
2019-02-18T11:39:17.575Z,7.58
2019-02-18T11:40:17.513Z,7.74
2019-02-18T11:41:26.819Z,7.72
2019-02-18T11:42:17.393Z,7.74
2019-02-18T11:43:17.331Z,7.78
2019-02-18T11:44:17.269Z,7.74
2019-02-18T11:45:17.207Z,7.75
2019-02-18T11:46:17.147Z,7.69
2019-02-18T11:47:17.086Z,7.71
2019-02-18T11:48:17.026Z,7.75
2019-02-18T11:49:16.963Z,7.77
2019-02-18T11:50:16.903Z,7.87
2019-02-18T11:51:16.848Z,7.85
2019-02-18T11:52:16.784Z,7.79
2019-02-18T11:53:16.718Z,7.79
2019-02-18T11:54:16.657Z,7.85
2019-02-18T11:55:16.597Z,7.89
2019-02-18T11:56:16.536Z,7.82
2019-02-18T11:57:16.477Z,7.89
2019-02-18T11:58:16.414Z,7.85
2019-02-18T11:59:24.115Z,7.85
2019-02-18T12:00:16.296Z,7.84
2019-02-18T12:01:16.229Z,7.92
2019-02-18T12:02:16.171Z,7.89
2019-02-18T12:03:16.109Z,7.90
2019-02-18T12:04:16.046Z,7.89
2019-02-18T12:05:15.985Z,7.84
2019-02-18T12:06:15.924Z,7.93
2019-02-18T12:07:15.863Z,7.90
2019-02-18T12:08:15.806Z,7.87
2019-02-18T12:09:17.775Z,7.94
2019-02-18T12:10:15.679Z,7.92
2019-02-18T12:11:15.620Z,7.92
2019-02-18T12:12:15.561Z,7.94
2019-02-18T12:13:15.507Z,7.94
2019-02-18T12:14:15.435Z,8.02
2019-02-18T12:15:15.376Z,7.99
2019-02-18T12:16:15.314Z,8.00
2019-02-18T12:17:20.580Z,7.94
2019-02-18T12:18:15.191Z,8.03
2019-02-18T12:19:15.132Z,8.02
2019-02-18T12:20:15.069Z,8.11
2019-02-18T12:21:15.011Z,8.04
2019-02-18T12:22:14.950Z,8.04
2019-02-18T12:23:14.887Z,7.99
2019-02-18T12:24:14.826Z,8.04
2019-02-18T12:25:14.764Z,8.12
2019-02-18T12:26:14.703Z,8.08
2019-02-18T12:27:14.642Z,8.08
2019-02-18T12:28:15.555Z,8.12
2019-02-18T12:29:14.520Z,8.11
2019-02-18T12:30:14.527Z,8.11
2019-02-18T12:31:14.399Z,8.12
2019-02-18T12:32:14.338Z,8.15
2019-02-18T12:33:14.586Z,8.20
2019-02-18T12:34:14.216Z,8.11
2019-02-18T12:35:14.155Z,8.22
2019-02-18T12:36:14.093Z,8.20
2019-02-18T12:37:14.036Z,8.20
2019-02-18T12:38:13.972Z,8.18
2019-02-18T12:39:13.924Z,8.22
2019-02-18T12:40:13.849Z,8.20
2019-02-18T12:41:13.799Z,8.18
2019-02-18T12:42:13.729Z,8.25
2019-02-18T12:43:13.668Z,8.22
2019-02-18T12:44:13.607Z,8.28
2019-02-18T12:45:13.545Z,8.18
2019-02-18T12:46:15.769Z,8.17
2019-02-18T12:47:13.424Z,8.17
2019-02-18T12:48:13.361Z,8.15
2019-02-18T12:49:13.301Z,8.25
2019-02-18T12:50:13.241Z,8.33
2019-02-18T12:51:13.181Z,8.20
2019-02-18T12:52:13.120Z,8.25
2019-02-18T12:53:13.058Z,8.22
2019-02-18T12:54:12.996Z,8.26
2019-02-18T12:55:12.995Z,8.21
2019-02-18T12:56:12.875Z,8.20
2019-02-18T12:57:12.814Z,8.28
2019-02-18T12:58:12.753Z,8.22
2019-02-18T12:59:12.705Z,8.33
2019-02-18T13:00:12.699Z,8.36
2019-02-18T13:01:12.571Z,8.33
2019-02-18T13:02:12.511Z,8.33
2019-02-18T13:03:12.453Z,8.30
2019-02-18T13:04:12.388Z,8.32
2019-02-18T13:05:12.335Z,8.33
2019-02-18T13:06:12.275Z,8.33
2019-02-18T13:07:12.214Z,8.36
2019-02-18T13:08:12.150Z,8.35
2019-02-18T13:09:12.085Z,8.36
2019-02-18T13:10:12.033Z,8.36
2019-02-18T13:11:11.973Z,8.36
2019-02-18T13:12:11.911Z,8.32
2019-02-18T13:13:11.846Z,8.40
2019-02-18T13:14:11.785Z,8.44
2019-02-18T13:15:11.726Z,8.45
2019-02-18T13:16:11.669Z,8.47
2019-02-18T13:17:11.603Z,8.37